sensor_id;sensor_type;location;lat;lon;timestamp;pressure;altitude;pressure_sealevel;temperature;humidity
77212;BME280;66206;0.000;0.000;2023-04-03T00:00:19;98660.35;;;21.93;28.90
77212;BME280;66206;0.000;0.000;2023-04-03T00:02:46;98659.73;;;22.19;28.74
77212;BME280;66206;0.000;0.000;2023-04-03T00:05:13;98655.52;;;22.20;28.66
77212;BME280;66206;0.000;0.000;2023-04-03T00:07:39;98651.29;;;22.06;28.66
77212;BME280;66206;0.000;0.000;2023-04-03T00:10:07;98650.52;;;22.12;28.76
77212;BME280;66206;0.000;0.000;2023-04-03T00:12:34;98657.15;;;22.26;28.59
77212;BME280;66206;0.000;0.000;2023-04-03T00:15:00;98658.76;;;22.08;28.72
77212;BME280;66206;0.000;0.000;2023-04-03T00:17:27;98658.79;;;22.08;28.67
77212;BME280;66206;0.000;0.000;2023-04-03T00:19:53;98658.44;;;22.25;28.57
77212;BME280;66206;0.000;0.000;2023-04-03T00:22:20;98660.32;;;22.11;28.54
77212;BME280;66206;0.000;0.000;2023-04-03T00:24:47;98661.85;;;22.05;28.51
77212;BME280;66206;0.000;0.000;2023-04-03T00:27:13;98660.04;;;22.02;28.56
77212;BME280;66206;0.000;0.000;2023-04-03T00:29:40;98662.58;;;22.08;28.52
77212;BME280;66206;0.000;0.000;2023-04-03T00:32:07;98665.73;;;22.25;28.40
77212;BME280;66206;0.000;0.000;2023-04-03T00:34:33;98666.49;;;22.03;28.43
77212;BME280;66206;0.000;0.000;2023-04-03T00:37:00;98660.09;;;22.17;28.47
77212;BME280;66206;0.000;0.000;2023-04-03T00:39:26;98660.00;;;22.00;28.55
77212;BME280;66206;0.000;0.000;2023-04-03T00:41:53;98662.95;;;22.00;28.52
77212;BME280;66206;0.000;0.000;2023-04-03T00:44:21;98661.49;;;22.04;28.52
77212;BME280;66206;0.000;0.000;2023-04-03T00:46:48;98663.52;;;22.17;28.45
77212;BME280;66206;0.000;0.000;2023-04-03T00:49:14;98661.34;;;22.08;28.47
77212;BME280;66206;0.000;0.000;2023-04-03T00:51:41;98661.25;;;22.02;28.48
77212;BME280;66206;0.000;0.000;2023-04-03T00:54:08;98661.81;;;22.07;28.38
77212;BME280;66206;0.000;0.000;2023-04-03T00:56:35;98663.18;;;22.02;28.42
77212;BME280;66206;0.000;0.000;2023-04-03T00:59:04;98658.14;;;21.96;28.49
77212;BME280;66206;0.000;0.000;2023-04-03T01:01:32;98658.91;;;21.86;28.61
77212;BME280;66206;0.000;0.000;2023-04-03T01:03:58;98657.83;;;21.74;28.71
77212;BME280;66206;0.000;0.000;2023-04-03T01:06:27;98657.93;;;21.80;28.58
77212;BME280;66206;0.000;0.000;2023-04-03T01:08:54;98659.52;;;21.87;28.45
77212;BME280;66206;0.000;0.000;2023-04-03T01:11:21;98658.43;;;21.82;28.50
77212;BME280;66206;0.000;0.000;2023-04-03T01:13:48;98662.54;;;21.85;28.44
77212;BME280;66206;0.000;0.000;2023-04-03T01:16:15;98662.14;;;21.76;28.48
77212;BME280;66206;0.000;0.000;2023-04-03T01:18:41;98663.89;;;21.79;28.48
77212;BME280;66206;0.000;0.000;2023-04-03T01:21:13;98657.01;;;21.70;28.51
77212;BME280;66206;0.000;0.000;2023-04-03T01:23:37;98659.22;;;21.73;28.49
77212;BME280;66206;0.000;0.000;2023-04-03T01:26:02;98661.26;;;21.82;28.48
77212;BME280;66206;0.000;0.000;2023-04-03T01:28:29;98661.02;;;21.69;28.48
77212;BME280;66206;0.000;0.000;2023-04-03T01:30:58;98664.74;;;21.55;28.64
77212;BME280;66206;0.000;0.000;2023-04-03T01:33:21;98660.68;;;21.75;28.48
77212;BME280;66206;0.000;0.000;2023-04-03T01:35:48;98661.12;;;21.63;28.55
77212;BME280;66206;0.000;0.000;2023-04-03T01:38:15;98663.48;;;21.66;28.59
77212;BME280;66206;0.000;0.000;2023-04-03T01:40:41;98664.38;;;21.58;28.51
77212;BME280;66206;0.000;0.000;2023-04-03T01:43:08;98662.55;;;21.63;28.53
77212;BME280;66206;0.000;0.000;2023-04-03T01:45:35;98662.98;;;21.67;28.42
77212;BME280;66206;0.000;0.000;2023-04-03T01:48:02;98664.58;;;21.64;28.44
77212;BME280;66206;0.000;0.000;2023-04-03T01:50:28;98664.97;;;21.66;28.51
77212;BME280;66206;0.000;0.000;2023-04-03T01:52:55;98665.22;;;21.63;28.41
77212;BME280;66206;0.000;0.000;2023-04-03T01:55:22;98665.84;;;21.51;28.52
77212;BME280;66206;0.000;0.000;2023-04-03T01:57:48;98664.10;;;21.58;28.47
77212;BME280;66206;0.000;0.000;2023-04-03T02:00:15;98663.88;;;21.56;28.43
77212;BME280;66206;0.000;0.000;2023-04-03T02:02:42;98664.85;;;21.64;28.44
77212;BME280;66206;0.000;0.000;2023-04-03T02:05:09;98663.73;;;21.59;28.38
77212;BME280;66206;0.000;0.000;2023-04-03T02:07:35;98660.17;;;21.68;28.31
77212;BME280;66206;0.000;0.000;2023-04-03T02:10:02;98658.86;;;21.62;28.28
77212;BME280;66206;0.000;0.000;2023-04-03T02:12:29;98662.97;;;21.53;28.30
77212;BME280;66206;0.000;0.000;2023-04-03T02:14:55;98662.63;;;21.53;28.33
77212;BME280;66206;0.000;0.000;2023-04-03T02:17:22;98663.65;;;21.48;28.39
77212;BME280;66206;0.000;0.000;2023-04-03T02:19:49;98663.84;;;21.66;28.29
77212;BME280;66206;0.000;0.000;2023-04-03T02:22:15;98664.62;;;21.56;28.29
77212;BME280;66206;0.000;0.000;2023-04-03T02:24:42;98667.02;;;21.47;28.24
77212;BME280;66206;0.000;0.000;2023-04-03T02:27:08;98667.38;;;21.72;28.25
77212;BME280;66206;0.000;0.000;2023-04-03T02:29:35;98664.84;;;21.54;28.32
77212;BME280;66206;0.000;0.000;2023-04-03T02:32:02;98664.92;;;21.59;28.20
77212;BME280;66206;0.000;0.000;2023-04-03T02:34:28;98663.12;;;21.58;28.13
77212;BME280;66206;0.000;0.000;2023-04-03T02:36:55;98663.56;;;21.50;28.25
77212;BME280;66206;0.000;0.000;2023-04-03T02:39:21;98663.12;;;21.61;28.22
77212;BME280;66206;0.000;0.000;2023-04-03T02:41:48;98662.19;;;21.69;28.12
77212;BME280;66206;0.000;0.000;2023-04-03T02:44:16;98660.00;;;21.58;28.21
77212;BME280;66206;0.000;0.000;2023-04-03T02:46:42;98661.54;;;21.52;28.21
77212;BME280;66206;0.000;0.000;2023-04-03T02:49:09;98663.38;;;21.52;28.19
77212;BME280;66206;0.000;0.000;2023-04-03T02:51:36;98664.01;;;21.54;28.15
77212;BME280;66206;0.000;0.000;2023-04-03T02:54:02;98661.13;;;21.52;28.13
77212;BME280;66206;0.000;0.000;2023-04-03T02:56:29;98660.53;;;21.49;28.15
77212;BME280;66206;0.000;0.000;2023-04-03T02:58:56;98661.04;;;21.46;28.16
77212;BME280;66206;0.000;0.000;2023-04-03T03:01:22;98661.40;;;21.33;28.25
77212;BME280;66206;0.000;0.000;2023-04-03T03:03:49;98663.08;;;21.33;28.21
77212;BME280;66206;0.000;0.000;2023-04-03T03:06:16;98663.32;;;21.45;28.18
77212;BME280;66206;0.000;0.000;2023-04-03T03:08:43;98665.90;;;21.35;28.22
77212;BME280;66206;0.000;0.000;2023-04-03T03:11:10;98666.92;;;21.58;28.11
77212;BME280;66206;0.000;0.000;2023-04-03T03:13:36;98664.67;;;21.62;27.98
77212;BME280;66206;0.000;0.000;2023-04-03T03:16:03;98664.16;;;21.74;27.80
77212;BME280;66206;0.000;0.000;2023-04-03T03:18:30;98660.86;;;21.76;27.82
77212;BME280;66206;0.000;0.000;2023-04-03T03:20:58;98663.86;;;21.66;27.77
77212;BME280;66206;0.000;0.000;2023-04-03T03:23:25;98664.69;;;21.72;27.72
77212;BME280;66206;0.000;0.000;2023-04-03T03:25:54;98662.32;;;21.70;27.65
77212;BME280;66206;0.000;0.000;2023-04-03T03:28:20;98658.10;;;21.76;27.62
77212;BME280;66206;0.000;0.000;2023-04-03T03:30:47;98658.00;;;21.74;27.61
77212;BME280;66206;0.000;0.000;2023-04-03T03:33:14;98659.32;;;21.73;27.54
77212;BME280;66206;0.000;0.000;2023-04-03T03:35:41;98662.26;;;21.82;27.53
77212;BME280;66206;0.000;0.000;2023-04-03T03:38:07;98658.83;;;21.84;27.41
77212;BME280;66206;0.000;0.000;2023-04-03T03:40:34;98659.35;;;21.91;27.41
77212;BME280;66206;0.000;0.000;2023-04-03T03:43:01;98658.84;;;21.81;27.47
77212;BME280;66206;0.000;0.000;2023-04-03T03:45:27;98658.43;;;21.84;27.47
77212;BME280;66206;0.000;0.000;2023-04-03T03:47:54;98661.33;;;21.74;27.57
77212;BME280;66206;0.000;0.000;2023-04-03T03:50:20;98661.59;;;21.82;27.50
77212;BME280;66206;0.000;0.000;2023-04-03T03:52:47;98661.88;;;21.82;27.54
77212;BME280;66206;0.000;0.000;2023-04-03T03:55:14;98662.12;;;21.74;27.57
77212;BME280;66206;0.000;0.000;2023-04-03T03:57:40;98658.02;;;21.83;27.56
77212;BME280;66206;0.000;0.000;2023-04-03T04:00:07;98660.14;;;21.89;27.49
77212;BME280;66206;0.000;0.000;2023-04-03T04:02:34;98662.05;;;21.85;27.54
77212;BME280;66206;0.000;0.000;2023-04-03T04:05:01;98662.04;;;21.70;27.72
77212;BME280;66206;0.000;0.000;2023-04-03T04:07:27;98660.29;;;21.79;27.69
77212;BME280;66206;0.000;0.000;2023-04-03T04:09:54;98659.84;;;21.69;27.66
77212;BME280;66206;0.000;0.000;2023-04-03T04:12:21;98663.15;;;21.83;27.62
77212;BME280;66206;0.000;0.000;2023-04-03T04:14:47;98667.20;;;21.58;27.77
77212;BME280;66206;0.000;0.000;2023-04-03T04:17:14;98664.87;;;21.68;27.72
77212;BME280;66206;0.000;0.000;2023-04-03T04:19:41;98661.08;;;21.76;27.66
77212;BME280;66206;0.000;0.000;2023-04-03T04:22:07;98665.04;;;21.83;27.73
77212;BME280;66206;0.000;0.000;2023-04-03T04:24:34;98665.06;;;21.68;27.65
77212;BME280;66206;0.000;0.000;2023-04-03T04:27:01;98664.72;;;21.72;27.70
77212;BME280;66206;0.000;0.000;2023-04-03T04:29:27;98666.56;;;21.86;27.62
77212;BME280;66206;0.000;0.000;2023-04-03T04:31:54;98665.65;;;21.85;27.62
77212;BME280;66206;0.000;0.000;2023-04-03T04:34:21;98665.57;;;21.80;27.66
77212;BME280;66206;0.000;0.000;2023-04-03T04:36:47;98665.97;;;21.66;27.77
77212;BME280;66206;0.000;0.000;2023-04-03T04:39:14;98666.35;;;21.67;27.76
77212;BME280;66206;0.000;0.000;2023-04-03T04:41:40;98667.56;;;21.55;27.75
77212;BME280;66206;0.000;0.000;2023-04-03T04:44:07;98673.04;;;21.76;27.69
77212;BME280;66206;0.000;0.000;2023-04-03T04:46:34;98673.81;;;21.85;27.65
77212;BME280;66206;0.000;0.000;2023-04-03T04:49:00;98675.50;;;21.81;27.58
77212;BME280;66206;0.000;0.000;2023-04-03T04:51:27;98675.18;;;21.75;27.59
77212;BME280;66206;0.000;0.000;2023-04-03T04:53:54;98679.23;;;21.62;27.70
77212;BME280;66206;0.000;0.000;2023-04-03T04:56:20;98678.79;;;21.61;27.61
77212;BME280;66206;0.000;0.000;2023-04-03T04:58:47;98681.25;;;21.67;27.66
77212;BME280;66206;0.000;0.000;2023-04-03T05:01:14;98682.38;;;21.74;27.56
77212;BME280;66206;0.000;0.000;2023-04-03T05:03:40;98688.87;;;21.69;27.55
77212;BME280;66206;0.000;0.000;2023-04-03T05:06:07;98691.38;;;21.57;27.70
77212;BME280;66206;0.000;0.000;2023-04-03T05:08:34;98694.56;;;21.65;27.63
77212;BME280;66206;0.000;0.000;2023-04-03T05:11:00;98696.17;;;21.52;27.70
77212;BME280;66206;0.000;0.000;2023-04-03T05:13:27;98696.19;;;21.60;27.66
77212;BME280;66206;0.000;0.000;2023-04-03T05:15:54;98695.65;;;21.65;27.57
77212;BME280;66206;0.000;0.000;2023-04-03T05:18:20;98698.73;;;21.73;27.48
77212;BME280;66206;0.000;0.000;2023-04-03T05:20:47;98693.97;;;21.62;27.50
77212;BME280;66206;0.000;0.000;2023-04-03T05:23:14;98700.10;;;21.78;27.50
77212;BME280;66206;0.000;0.000;2023-04-03T05:25:41;98702.62;;;21.79;27.45
77212;BME280;66206;0.000;0.000;2023-04-03T05:28:08;98700.08;;;21.60;27.49
77212;BME280;66206;0.000;0.000;2023-04-03T05:30:34;98701.12;;;21.66;27.50
77212;BME280;66206;0.000;0.000;2023-04-03T05:33:01;98704.30;;;21.74;27.42
77212;BME280;66206;0.000;0.000;2023-04-03T05:35:28;98704.92;;;21.68;27.46
77212;BME280;66206;0.000;0.000;2023-04-03T05:37:54;98702.14;;;21.66;27.44
77212;BME280;66206;0.000;0.000;2023-04-03T05:40:21;98702.18;;;21.72;27.36
77212;BME280;66206;0.000;0.000;2023-04-03T05:42:48;98704.92;;;21.67;27.47
77212;BME280;66206;0.000;0.000;2023-04-03T05:45:14;98705.24;;;21.67;27.45
77212;BME280;66206;0.000;0.000;2023-04-03T05:47:41;98713.15;;;21.71;27.38
77212;BME280;66206;0.000;0.000;2023-04-03T05:50:08;98713.59;;;21.71;27.44
77212;BME280;66206;0.000;0.000;2023-04-03T05:52:35;98717.32;;;21.76;27.35
77212;BME280;66206;0.000;0.000;2023-04-03T05:55:03;98717.06;;;21.69;27.42
77212;BME280;66206;0.000;0.000;2023-04-03T05:57:29;98724.49;;;21.66;27.47
77212;BME280;66206;0.000;0.000;2023-04-03T05:59:56;98722.78;;;21.69;27.40
77212;BME280;66206;0.000;0.000;2023-04-03T06:02:23;98726.00;;;21.61;27.48
77212;BME280;66206;0.000;0.000;2023-04-03T06:04:50;98731.57;;;21.26;27.94
77212;BME280;66206;0.000;0.000;2023-04-03T06:07:17;98732.76;;;21.54;28.99
77212;BME280;66206;0.000;0.000;2023-04-03T06:09:44;98729.27;;;21.59;29.45
77212;BME280;66206;0.000;0.000;2023-04-03T06:12:11;98728.43;;;21.63;28.44
77212;BME280;66206;0.000;0.000;2023-04-03T06:14:38;98732.89;;;21.56;28.26
77212;BME280;66206;0.000;0.000;2023-04-03T06:17:04;98732.68;;;21.69;28.57
77212;BME280;66206;0.000;0.000;2023-04-03T06:19:31;98729.73;;;21.65;28.27
77212;BME280;66206;0.000;0.000;2023-04-03T06:21:58;98736.52;;;21.80;28.24
77212;BME280;66206;0.000;0.000;2023-04-03T06:24:24;98738.92;;;21.63;28.40
77212;BME280;66206;0.000;0.000;2023-04-03T06:26:51;98740.34;;;21.70;28.32
77212;BME280;66206;0.000;0.000;2023-04-03T06:29:19;98741.85;;;21.52;28.55
77212;BME280;66206;0.000;0.000;2023-04-03T06:31:45;98744.78;;;21.69;28.38
77212;BME280;66206;0.000;0.000;2023-04-03T06:34:13;98745.72;;;21.72;28.28
77212;BME280;66206;0.000;0.000;2023-04-03T06:36:39;98742.63;;;21.65;28.29
77212;BME280;66206;0.000;0.000;2023-04-03T06:39:06;98749.93;;;21.54;28.44
77212;BME280;66206;0.000;0.000;2023-04-03T06:41:33;98751.68;;;21.57;28.83
77212;BME280;66206;0.000;0.000;2023-04-03T06:43:59;98756.51;;;21.46;29.84
77212;BME280;66206;0.000;0.000;2023-04-03T06:46:26;98757.31;;;21.63;29.67
77212;BME280;66206;0.000;0.000;2023-04-03T06:48:53;98759.93;;;21.47;30.04
77212;BME280;66206;0.000;0.000;2023-04-03T06:51:20;98756.84;;;21.53;30.04
77212;BME280;66206;0.000;0.000;2023-04-03T06:53:48;98759.73;;;21.52;30.12
77212;BME280;66206;0.000;0.000;2023-04-03T06:56:15;98763.69;;;21.49;30.22
77212;BME280;66206;0.000;0.000;2023-04-03T06:58:42;98763.92;;;21.38;30.49
77212;BME280;66206;0.000;0.000;2023-04-03T07:01:09;98767.96;;;21.62;30.45
77212;BME280;66206;0.000;0.000;2023-04-03T07:03:36;98771.60;;;21.65;30.55
77212;BME280;66206;0.000;0.000;2023-04-03T07:06:03;98774.92;;;21.44;30.83
77212;BME280;66206;0.000;0.000;2023-04-03T07:08:29;98779.06;;;21.56;30.78
77212;BME280;66206;0.000;0.000;2023-04-03T07:10:56;98781.43;;;21.68;30.81
77212;BME280;66206;0.000;0.000;2023-04-03T07:13:23;98783.67;;;21.57;31.12
77212;BME280;66206;0.000;0.000;2023-04-03T07:15:50;98787.21;;;21.92;30.48
77212;BME280;66206;0.000;0.000;2023-04-03T07:18:16;98789.19;;;21.93;30.11
77212;BME280;66206;0.000;0.000;2023-04-03T07:20:43;98788.59;;;21.72;30.37
77212;BME280;66206;0.000;0.000;2023-04-03T07:23:10;98795.72;;;21.78;30.89
77212;BME280;66206;0.000;0.000;2023-04-03T07:25:37;98797.38;;;21.95;30.99
77212;BME280;66206;0.000;0.000;2023-04-03T07:28:03;98797.93;;;22.05;30.68
77212;BME280;66206;0.000;0.000;2023-04-03T07:30:29;98798.16;;;22.25;30.52
77212;BME280;66206;0.000;0.000;2023-04-03T07:32:56;98796.09;;;22.48;30.62
77212;BME280;66206;0.000;0.000;2023-04-03T07:35:23;98793.11;;;22.66;30.06
77212;BME280;66206;0.000;0.000;2023-04-03T07:37:50;98793.74;;;22.57;30.07
77212;BME280;66206;0.000;0.000;2023-04-03T07:40:16;98795.97;;;22.88;29.61
77212;BME280;66206;0.000;0.000;2023-04-03T07:42:43;98797.55;;;23.09;29.20
77212;BME280;66206;0.000;0.000;2023-04-03T07:45:10;98802.70;;;23.09;29.13
77212;BME280;66206;0.000;0.000;2023-04-03T07:47:36;98802.64;;;23.07;29.07
77212;BME280;66206;0.000;0.000;2023-04-03T07:50:03;98808.62;;;23.49;28.66
77212;BME280;66206;0.000;0.000;2023-04-03T07:52:30;98806.50;;;22.89;28.96
77212;BME280;66206;0.000;0.000;2023-04-03T07:54:57;98806.81;;;23.10;28.91
77212;BME280;66206;0.000;0.000;2023-04-03T07:57:23;98808.52;;;23.13;29.08
77212;BME280;66206;0.000;0.000;2023-04-03T07:59:50;98809.17;;;23.28;28.74
77212;BME280;66206;0.000;0.000;2023-04-03T08:02:17;98809.19;;;23.30;28.73
77212;BME280;66206;0.000;0.000;2023-04-03T08:04:43;98810.20;;;23.12;28.77
77212;BME280;66206;0.000;0.000;2023-04-03T08:07:10;98805.85;;;23.29;28.59
77212;BME280;66206;0.000;0.000;2023-04-03T08:09:37;98813.13;;;23.30;28.60
77212;BME280;66206;0.000;0.000;2023-04-03T08:12:04;98811.49;;;23.54;28.39
77212;BME280;66206;0.000;0.000;2023-04-03T08:14:31;98815.13;;;23.55;28.34
77212;BME280;66206;0.000;0.000;2023-04-03T08:16:57;98819.29;;;23.60;28.55
77212;BME280;66206;0.000;0.000;2023-04-03T08:19:24;98821.79;;;23.55;28.45
77212;BME280;66206;0.000;0.000;2023-04-03T08:21:51;98822.73;;;23.56;28.62
77212;BME280;66206;0.000;0.000;2023-04-03T08:24:18;98819.85;;;23.50;28.98
77212;BME280;66206;0.000;0.000;2023-04-03T08:26:45;98822.36;;;23.63;28.38
77212;BME280;66206;0.000;0.000;2023-04-03T08:29:12;98825.83;;;23.66;28.50
77212;BME280;66206;0.000;0.000;2023-04-03T08:31:38;98821.15;;;23.72;28.18
77212;BME280;66206;0.000;0.000;2023-04-03T08:34:05;98821.95;;;23.70;28.37
77212;BME280;66206;0.000;0.000;2023-04-03T08:36:32;98822.59;;;23.48;28.58
77212;BME280;66206;0.000;0.000;2023-04-03T08:38:59;98822.98;;;23.45;28.46
77212;BME280;66206;0.000;0.000;2023-04-03T08:41:27;98822.15;;;23.57;28.53
77212;BME280;66206;0.000;0.000;2023-04-03T08:43:56;98820.56;;;23.55;28.46
77212;BME280;66206;0.000;0.000;2023-04-03T08:46:26;98820.31;;;23.40;28.48
77212;BME280;66206;0.000;0.000;2023-04-03T08:48:52;98821.91;;;23.69;28.43
77212;BME280;66206;0.000;0.000;2023-04-03T08:51:20;98823.19;;;23.70;28.16
77212;BME280;66206;0.000;0.000;2023-04-03T08:53:49;98822.79;;;23.66;28.18
77212;BME280;66206;0.000;0.000;2023-04-03T08:56:15;98825.49;;;23.65;28.09
77212;BME280;66206;0.000;0.000;2023-04-03T08:58:45;98827.68;;;23.76;28.21
77212;BME280;66206;0.000;0.000;2023-04-03T09:01:13;98825.07;;;23.38;28.34
77212;BME280;66206;0.000;0.000;2023-04-03T09:03:38;98828.94;;;23.41;28.43
77212;BME280;66206;0.000;0.000;2023-04-03T09:06:06;98829.54;;;23.32;28.59
77212;BME280;66206;0.000;0.000;2023-04-03T09:08:36;98822.65;;;23.43;28.39
77212;BME280;66206;0.000;0.000;2023-04-03T09:11:06;98831.14;;;23.53;28.24
77212;BME280;66206;0.000;0.000;2023-04-03T09:13:30;98833.38;;;23.57;28.17
77212;BME280;66206;0.000;0.000;2023-04-03T09:15:55;98834.14;;;23.68;28.23
77212;BME280;66206;0.000;0.000;2023-04-03T09:18:23;98836.60;;;23.51;28.25
77212;BME280;66206;0.000;0.000;2023-04-03T09:20:54;98837.67;;;23.60;28.09
77212;BME280;66206;0.000;0.000;2023-04-03T09:23:21;98840.23;;;23.60;28.04
77212;BME280;66206;0.000;0.000;2023-04-03T09:25:48;98837.92;;;23.30;28.43
77212;BME280;66206;0.000;0.000;2023-04-03T09:28:16;98838.74;;;23.38;28.40
77212;BME280;66206;0.000;0.000;2023-04-03T09:30:43;98834.96;;;23.41;28.37
77212;BME280;66206;0.000;0.000;2023-04-03T09:33:09;98838.92;;;23.42;28.28
77212;BME280;66206;0.000;0.000;2023-04-03T09:35:37;98841.49;;;23.59;28.17
77212;BME280;66206;0.000;0.000;2023-04-03T09:38:17;98838.20;;;23.55;28.13
77212;BME280;66206;0.000;0.000;2023-04-03T09:40:34;98835.64;;;23.38;28.05
77212;BME280;66206;0.000;0.000;2023-04-03T09:43:02;98830.39;;;23.50;27.93
77212;BME280;66206;0.000;0.000;2023-04-03T09:45:30;98836.29;;;23.58;28.00
77212;BME280;66206;0.000;0.000;2023-04-03T09:48:05;98832.09;;;23.44;27.90
77212;BME280;66206;0.000;0.000;2023-04-03T09:50:27;98837.37;;;23.27;28.15
77212;BME280;66206;0.000;0.000;2023-04-03T09:52:54;98830.31;;;23.24;28.32
77212;BME280;66206;0.000;0.000;2023-04-03T09:55:21;98833.27;;;22.94;28.71
77212;BME280;66206;0.000;0.000;2023-04-03T09:57:48;98828.31;;;23.06;28.64
77212;BME280;66206;0.000;0.000;2023-04-03T10:00:20;98822.40;;;23.24;28.55
77212;BME280;66206;0.000;0.000;2023-04-03T10:02:42;98822.99;;;23.48;28.34
77212;BME280;66206;0.000;0.000;2023-04-03T10:05:26;98825.26;;;23.28;28.34
77212;BME280;66206;0.000;0.000;2023-04-03T10:07:37;98828.14;;;23.20;28.45
77212;BME280;66206;0.000;0.000;2023-04-03T10:10:16;98829.83;;;22.93;28.72
77212;BME280;66206;0.000;0.000;2023-04-03T10:12:32;98827.42;;;22.79;28.01
77212;BME280;66206;0.000;0.000;2023-04-03T10:14:59;98831.86;;;21.28;25.67
77212;BME280;66206;0.000;0.000;2023-04-03T10:17:30;98828.60;;;21.26;25.06
77212;BME280;66206;0.000;0.000;2023-04-03T10:19:55;98826.79;;;21.39;24.01
77212;BME280;66206;0.000;0.000;2023-04-03T10:22:26;98816.96;;;21.55;23.86
77212;BME280;66206;0.000;0.000;2023-04-03T10:24:57;98816.14;;;21.14;22.59
77212;BME280;66206;0.000;0.000;2023-04-03T10:27:24;98815.26;;;21.22;22.24
77212;BME280;66206;0.000;0.000;2023-04-03T10:29:49;98816.61;;;21.38;21.97
77212;BME280;66206;0.000;0.000;2023-04-03T10:32:43;98811.49;;;21.43;21.93
77212;BME280;66206;0.000;0.000;2023-04-03T10:34:40;98812.34;;;21.79;22.38
77212;BME280;66206;0.000;0.000;2023-04-03T10:37:11;98813.48;;;22.31;24.21
77212;BME280;66206;0.000;0.000;2023-04-03T10:39:36;98813.34;;;22.38;24.86
77212;BME280;66206;0.000;0.000;2023-04-03T10:42:02;98810.00;;;22.89;25.41
77212;BME280;66206;0.000;0.000;2023-04-03T10:44:31;98810.43;;;23.32;25.28
77212;BME280;66206;0.000;0.000;2023-04-03T10:46:56;98810.16;;;23.48;25.31
77212;BME280;66206;0.000;0.000;2023-04-03T10:49:25;98805.35;;;23.70;25.17
77212;BME280;66206;0.000;0.000;2023-04-03T10:51:50;98801.35;;;23.42;25.60
77212;BME280;66206;0.000;0.000;2023-04-03T10:54:16;98798.36;;;23.24;25.78
77212;BME280;66206;0.000;0.000;2023-04-03T10:56:40;98794.19;;;23.38;25.78
77212;BME280;66206;0.000;0.000;2023-04-03T10:59:13;98793.34;;;23.30;26.18
77212;BME280;66206;0.000;0.000;2023-04-03T11:01:38;98793.59;;;23.41;25.47
77212;BME280;66206;0.000;0.000;2023-04-03T11:04:06;98789.80;;;23.51;25.59
77212;BME280;66206;0.000;0.000;2023-04-03T11:06:34;98782.28;;;23.65;25.59
77212;BME280;66206;0.000;0.000;2023-04-03T11:09:03;98778.92;;;23.73;25.54
77212;BME280;66206;0.000;0.000;2023-04-03T11:11:32;98775.43;;;23.91;25.62
77212;BME280;66206;0.000;0.000;2023-04-03T11:14:01;98766.75;;;23.41;26.50
77212;BME280;66206;0.000;0.000;2023-04-03T11:16:30;98770.66;;;23.57;26.32
77212;BME280;66206;0.000;0.000;2023-04-03T11:18:59;98768.95;;;23.49;25.89
77212;BME280;66206;0.000;0.000;2023-04-03T11:21:28;98764.65;;;23.73;25.76
77212;BME280;66206;0.000;0.000;2023-04-03T11:23:56;98765.42;;;23.71;25.83
77212;BME280;66206;0.000;0.000;2023-04-03T11:26:24;98767.19;;;23.65;25.70
77212;BME280;66206;0.000;0.000;2023-04-03T11:28:52;98761.25;;;23.74;25.81
77212;BME280;66206;0.000;0.000;2023-04-03T11:31:18;98769.09;;;23.66;26.11
77212;BME280;66206;0.000;0.000;2023-04-03T11:33:42;98765.97;;;23.40;26.40
77212;BME280;66206;0.000;0.000;2023-04-03T11:36:07;98763.97;;;23.18;26.38
77212;BME280;66206;0.000;0.000;2023-04-03T11:38:36;98764.45;;;23.51;26.23
77212;BME280;66206;0.000;0.000;2023-04-03T11:41:04;98753.65;;;23.67;26.15
77212;BME280;66206;0.000;0.000;2023-04-03T11:43:32;98757.16;;;23.24;26.44
77212;BME280;66206;0.000;0.000;2023-04-03T11:46:00;98751.68;;;23.30;26.36
77212;BME280;66206;0.000;0.000;2023-04-03T11:48:45;98754.51;;;23.35;26.47
77212;BME280;66206;0.000;0.000;2023-04-03T11:50:56;98753.94;;;23.41;26.50
77212;BME280;66206;0.000;0.000;2023-04-03T11:53:26;98746.35;;;23.29;26.71
77212;BME280;66206;0.000;0.000;2023-04-03T11:55:54;98744.76;;;23.29;26.71
77212;BME280;66206;0.000;0.000;2023-04-03T11:58:21;98753.02;;;23.34;26.83
77212;BME280;66206;0.000;0.000;2023-04-03T12:00:50;98745.35;;;23.55;26.76
77212;BME280;66206;0.000;0.000;2023-04-03T12:03:33;98746.20;;;23.52;26.84
77212;BME280;66206;0.000;0.000;2023-04-03T12:05:45;98745.43;;;23.36;27.04
77212;BME280;66206;0.000;0.000;2023-04-03T12:08:29;98743.24;;;23.39;27.08
77212;BME280;66206;0.000;0.000;2023-04-03T12:10:41;98741.16;;;23.51;26.98
77212;BME280;66206;0.000;0.000;2023-04-03T12:13:13;98741.68;;;23.33;27.17
77212;BME280;66206;0.000;0.000;2023-04-03T12:15:47;98728.19;;;23.49;26.90
77212;BME280;66206;0.000;0.000;2023-04-03T12:18:43;98729.20;;;23.14;27.27
77212;BME280;66206;0.000;0.000;2023-04-03T12:20:55;98728.41;;;23.20;27.15
77212;BME280;66206;0.000;0.000;2023-04-03T12:40:36;98711.04;;;21.46;25.48
77212;BME280;66206;0.000;0.000;2023-04-03T12:40:52;98706.06;;;21.60;25.32
77212;BME280;66206;0.000;0.000;2023-04-03T12:43:43;98707.27;;;21.79;24.68
77212;BME280;66206;0.000;0.000;2023-04-03T12:45:44;98706.40;;;22.21;24.15
77212;BME280;66206;0.000;0.000;2023-04-03T12:48:15;98702.52;;;22.40;24.05
77212;BME280;66206;0.000;0.000;2023-04-03T12:50:45;98698.50;;;22.28;24.08
77212;BME280;66206;0.000;0.000;2023-04-03T12:53:15;98696.14;;;22.37;23.96
77212;BME280;66206;0.000;0.000;2023-04-03T12:55:43;98693.85;;;22.06;24.10
77212;BME280;66206;0.000;0.000;2023-04-03T12:58:26;98688.47;;;22.32;24.07
77212;BME280;66206;0.000;0.000;2023-04-03T13:00:38;98691.80;;;22.02;24.29
77212;BME280;66206;0.000;0.000;2023-04-03T13:03:01;98689.98;;;21.71;24.61
77212;BME280;66206;0.000;0.000;2023-04-03T13:05:33;98690.45;;;21.90;24.59
77212;BME280;66206;0.000;0.000;2023-04-03T13:07:58;98686.25;;;21.69;24.82
77212;BME280;66206;0.000;0.000;2023-04-03T13:10:29;98689.30;;;21.69;24.90
77212;BME280;66206;0.000;0.000;2023-04-03T13:12:53;98689.08;;;21.97;24.53
77212;BME280;66206;0.000;0.000;2023-04-03T13:15:23;98687.32;;;22.32;24.29
77212;BME280;66206;0.000;0.000;2023-04-03T13:17:51;98684.83;;;22.34;24.07
77212;BME280;66206;0.000;0.000;2023-04-03T13:20:21;98686.86;;;22.25;24.20
77212;BME280;66206;0.000;0.000;2023-04-03T13:22:47;98683.65;;;22.44;24.15